Main page
METAR-TAF:

METAR-TAF

Airports :

East Midlands Airport

East Midlands, England

latitude: 52-50N, longitude: 001-20W, elevation: 94 m

Current weather observation

The report was made 29 minutes ago, at 07:20 UTC
Wind 10 kt from the South/Southwest
Temperature 15°C
Humidity 82%
Pressure 1001 hPa
Visibility 10 km or more
no clouds below 1500 m and no cumulonimbus

METAR: EGNX 180720Z 21010KT CAVOK 15/12 Q1001

Time: 08:49 (07:49 UTC)

Forecast

The report was made 2 hours and 54 minutes ago, at 04:55 UTC
Forecast valid from 18 at 06 UTC to 19 at 06 UTC
Wind 9 kt from the Southwest
Visibility 10 km or more
Few clouds at a height of 2500 ft
Probability 40% :
Temporary
from 18 at 10 UTC to 18 at 18 UTC
Wind 15 kt from the West/Southwest with gusts up to 25 kt
Visibility: 8000 m
rain showers
Probability 40% :
Temporary
from 18 at 21 UTC to 19 at 03 UTC
Visibility: 8000 m
rain showers

TAF: EGNX 180455Z 1806/1906 23009KT 9999 FEW025 PROB40 TEMPO 1810/1818 24015G25KT 8000 SHRA PROB40 TEMPO 1821/1903 8000 SHRA

Weather observations and forecasts of more than 4000 airports (METAR and TAF reports).

The available stations are represented by yellow and red dots on the map.

Hover mouse over dot to see the name of the station.

Then click to see weather observations and forecasts.

To change the map : click on the green buttons with a black cross to zoom in, on the green button with a dash to zoom out, or on the green arrows for adjacent maps.


METAR-TAF: